Time;durP1;ratioP1;P1;durP2;ratioP2;P2;SDS_P1;SDS_P2;PMS_P1;PMS_P2;Temp;Humidity;BMP_temperature;BMP_pressure;BME280_temperature;BME280_humidity;BME280_pressure;Samples;Min_cycle;Max_cycle;Signal;HPM_P1;HPM_P2
2023/11/20 00:01:47;;;;;;;20.27;2.78;;;12.90;99.90;;;;;;4989347;28;20451;-65
2023/11/20 00:04:12;;;;;;;12.02;3.13;;;12.70;99.90;;;;;;4987890;28;20076;-63
2023/11/20 00:06:38;;;;;;;13.68;3.47;;;12.70;99.90;;;;;;4987457;28;20061;-63
2023/11/20 00:09:04;;;;;;;20.95;4.43;;;12.70;99.90;;;;;;4989145;28;20023;-62
2023/11/20 00:11:30;;;;;;;14.85;2.80;;;12.70;99.90;;;;;;4988871;28;20031;-62
2023/11/20 00:13:55;;;;;;;14.90;2.58;;;12.70;99.90;;;;;;4988982;28;20026;-65
2023/11/20 00:16:21;;;;;;;13.55;3.30;;;12.70;99.90;;;;;;4988764;28;20027;-65
2023/11/20 00:18:46;;;;;;;17.70;4.68;;;12.70;99.90;;;;;;4987661;28;20023;-65
2023/11/20 00:21:12;;;;;;;11.85;2.67;;;12.70;99.90;;;;;;4988968;28;20168;-61
2023/11/20 00:23:38;;;;;;;16.38;3.10;;;12.70;99.90;;;;;;4989084;28;20498;-61
2023/11/20 00:26:04;;;;;;;21.42;3.75;;;12.60;99.90;;;;;;4988629;28;20045;-65
2023/11/20 00:28:30;;;;;;;24.90;3.97;;;12.70;99.90;;;;;;4988344;28;20026;-66
2023/11/20 00:30:55;;;;;;;17.40;2.85;;;12.60;99.90;;;;;;4988210;28;20390;-64
2023/11/20 00:33:21;;;;;;;12.77;2.50;;;12.60;99.90;;;;;;4988224;28;20076;-64
2023/11/20 00:35:46;;;;;;;17.65;2.42;;;12.60;99.90;;;;;;4988294;28;20065;-60
2023/11/20 00:38:12;;;;;;;12.02;2.72;;;12.70;99.90;;;;;;4987306;28;20022;-55
2023/11/20 00:40:37;;;;;;;13.75;3.60;;;12.70;99.90;;;;;;4989044;28;20037;-59
2023/11/20 00:43:03;;;;;;;17.85;2.88;;;12.60;99.90;;;;;;4988226;28;20490;-57
2023/11/20 00:45:28;;;;;;;10.60;2.97;;;12.70;99.90;;;;;;4988281;28;20045;-48
2023/11/20 00:47:54;;;;;;;11.55;2.97;;;12.70;99.90;;;;;;4989321;28;20458;-47
2023/11/20 00:50:19;;;;;;;16.23;3.08;;;12.70;99.90;;;;;;4989077;28;20062;-50
2023/11/20 00:52:45;;;;;;;20.27;3.55;;;12.70;99.90;;;;;;4988654;28;20030;-51
2023/11/20 00:55:10;;;;;;;8.93;2.60;;;12.70;99.90;;;;;;4987941;28;20121;-46
2023/11/20 00:57:39;;;;;;;16.92;2.80;;;12.70;99.90;;;;;;4989255;28;20498;-45
2023/11/20 01:00:06;;;;;;;15.55;2.80;;;12.80;99.90;;;;;;4989203;28;20455;-51
2023/11/20 01:02:32;;;;;;;18.17;2.58;;;12.70;99.90;;;;;;4987834;28;20026;-45
2023/11/20 01:04:58;;;;;;;10.70;2.22;;;12.70;99.90;;;;;;4989036;28;20031;-49
2023/11/20 01:07:24;;;;;;;7.53;1.95;;;12.70;99.90;;;;;;4989134;28;20023;-44
2023/11/20 01:09:49;;;;;;;17.33;3.55;;;12.70;99.90;;;;;;4989153;28;20037;-46
2023/11/20 01:12:15;;;;;;;9.70;2.42;;;12.80;99.90;;;;;;4989031;28;20048;-45
2023/11/20 01:14:40;;;;;;;17.85;3.33;;;12.80;99.90;;;;;;4989204;28;20018;-46
2023/11/20 01:17:06;;;;;;;11.82;2.17;;;12.90;99.90;;;;;;4988848;28;20030;-55
2023/11/20 01:19:31;;;;;;;10.35;3.22;;;12.80;99.90;;;;;;4987638;28;20436;-50
2023/11/20 01:21:57;;;;;;;7.53;2.53;;;12.80;99.90;;;;;;4988832;28;20058;-51
2023/11/20 01:24:23;;;;;;;15.80;3.90;;;12.80;99.90;;;;;;4988875;28;20058;-47
2023/11/20 01:26:49;;;;;;;9.85;2.55;;;12.80;99.90;;;;;;4989216;28;20034;-45
2023/11/20 01:29:14;;;;;;;15.50;2.97;;;12.70;99.90;;;;;;4989079;28;20053;-49
2023/11/20 01:31:40;;;;;;;10.05;2.65;;;12.70;99.90;;;;;;4988591;28;20026;-51
2023/11/20 01:34:05;;;;;;;8.40;2.83;;;12.70;99.90;;;;;;4988860;28;20076;-46
2023/11/20 01:36:31;;;;;;;16.52;2.58;;;12.80;99.90;;;;;;4988805;28;20034;-45
2023/11/20 01:38:56;;;;;;;12.77;2.80;;;12.70;99.90;;;;;;4989522;28;20480;-47
2023/11/20 01:41:22;;;;;;;15.15;4.15;;;12.60;99.90;;;;;;4989053;28;20031;-44
2023/11/20 01:43:48;;;;;;;19.40;3.50;;;12.60;99.90;;;;;;4991019;28;20394;-46
2023/11/20 01:46:14;;;;;;;19.20;3.08;;;12.50;99.90;;;;;;4992201;28;20037;-45
2023/11/20 01:48:41;;;;;;;15.30;2.80;;;12.40;99.90;;;;;;4991684;28;20393;-45
2023/11/20 01:51:07;;;;;;;13.48;2.88;;;12.40;99.90;;;;;;4991748;28;20165;-45
2023/11/20 01:53:35;;;;;;;18.35;4.50;;;12.30;99.90;;;;;;4992097;28;20034;-46
2023/11/20 01:56:00;;;;;;;8.55;2.20;;;12.20;99.90;;;;;;4991842;28;20034;-46
2023/11/20 01:58:26;;;;;;;15.88;3.15;;;12.20;99.90;;;;;;4990505;28;20030;-45
2023/11/20 02:00:53;;;;;;;12.30;2.60;;;12.20;99.90;;;;;;4992070;28;20049;-44
2023/11/20 02:03:19;;;;;;;13.93;2.50;;;12.20;99.90;;;;;;4991635;28;20029;-45
2023/11/20 02:05:46;;;;;;;17.20;2.72;;;12.20;99.90;;;;;;4991753;28;20049;-45
2023/11/20 02:08:13;;;;;;;12.98;2.33;;;12.20;99.90;;;;;;4991890;28;20042;-48
2023/11/20 02:10:39;;;;;;;19.13;2.88;;;12.30;99.90;;;;;;4991652;28;20097;-49
2023/11/20 02:13:06;;;;;;;21.00;3.33;;;12.20;99.90;;;;;;4991380;28;20117;-49
2023/11/20 02:15:32;;;;;;;11.73;2.90;;;12.30;99.90;;;;;;4991596;28;20019;-50
2023/11/20 02:17:57;;;;;;;20.20;3.00;;;12.20;99.90;;;;;;4991513;28;20033;-51
2023/11/20 02:20:24;;;;;;;15.30;3.30;;;12.20;99.90;;;;;;4991807;28;20496;-50
2023/11/20 02:22:49;;;;;;;21.77;4.25;;;12.20;99.90;;;;;;4991325;28;20053;-45
2023/11/20 02:25:17;;;;;;;15.52;2.80;;;12.20;99.90;;;;;;4991899;28;20026;-46
2023/11/20 02:27:51;;;;;;;16.20;2.88;;;12.30;99.90;;;;;;4989982;28;20023;-49
2023/11/20 02:30:16;;;;;;;11.32;2.35;;;12.20;99.90;;;;;;4989989;28;20026;-52
2023/11/20 02:32:43;;;;;;;16.80;4.55;;;12.30;99.90;;;;;;4991169;28;20106;-49
2023/11/20 02:35:15;;;;;;;12.27;2.72;;;12.20;99.90;;;;;;4991281;28;20018;-47
2023/11/20 02:37:41;;;;;;;14.98;2.67;;;12.30;99.90;;;;;;4991120;28;20101;-51
2023/11/20 02:40:07;;;;;;;16.05;4.15;;;12.30;99.90;;;;;;4991206;28;20450;-49
2023/11/20 02:42:35;;;;;;;15.73;3.28;;;12.30;99.90;;;;;;4991340;28;20051;-50
2023/11/20 02:45:01;;;;;;;16.23;2.78;;;12.30;99.90;;;;;;4991409;28;20469;-48
2023/11/20 02:47:27;;;;;;;21.13;2.85;;;12.30;99.90;;;;;;4991165;28;20037;-49
2023/11/20 02:49:52;;;;;;;22.73;2.97;;;12.30;99.90;;;;;;4990867;28;20050;-50
2023/11/20 02:52:18;;;;;;;12.73;3.55;;;12.30;99.90;;;;;;4990030;28;20057;-48
2023/11/20 02:54:44;;;;;;;15.93;3.63;;;12.30;99.90;;;;;;5012903;23;20050;-46
2023/11/20 02:57:10;;;;;;;11.43;2.28;;;12.30;99.90;;;;;;5010255;28;20067;-49
2023/11/20 02:59:35;;;;;;;13.52;3.58;;;12.30;99.90;;;;;;5010467;28;20034;-53
2023/11/20 03:02:01;;;;;;;11.48;2.67;;;12.30;99.90;;;;;;5010271;28;20049;-51
2023/11/20 03:04:27;;;;;;;8.43;3.20;;;12.40;99.90;;;;;;5010284;28;20404;-48
2023/11/20 03:06:52;;;;;;;11.05;3.30;;;12.40;99.90;;;;;;5008962;28;20159;-49
2023/11/20 03:09:18;;;;;;;11.55;3.35;;;12.40;99.90;;;;;;5010191;28;20022;-51
2023/11/20 03:11:45;;;;;;;18.50;3.08;;;12.40;99.90;;;;;;5010168;28;20028;-49
2023/11/20 03:14:12;;;;;;;16.00;3.00;;;12.40;99.90;;;;;;5010281;28;20056;-49
2023/11/20 03:16:38;;;;;;;11.30;2.10;;;12.40;99.90;;;;;;5010212;28;20083;-50
2023/11/20 03:19:05;;;;;;;20.88;4.13;;;12.40;99.90;;;;;;5010221;28;20022;-49
2023/11/20 03:21:33;;;;;;;13.65;2.30;;;12.40;99.90;;;;;;5010031;28;20030;-49
2023/11/20 03:23:59;;;;;;;8.65;2.45;;;12.30;99.90;;;;;;5010160;28;20030;-49
2023/11/20 03:26:26;;;;;;;13.07;3.00;;;12.30;99.90;;;;;;5008736;28;20471;-49
2023/11/20 03:28:52;;;;;;;16.42;3.15;;;12.30;99.90;;;;;;5008653;28;20105;-51
2023/11/20 03:31:18;;;;;;;9.10;2.30;;;12.30;99.90;;;;;;5009928;28;20026;-50
2023/11/20 03:33:46;;;;;;;14.82;2.63;;;12.30;99.90;;;;;;5009983;28;20026;-47
2023/11/20 03:36:13;;;;;;;14.02;3.20;;;12.30;99.90;;;;;;5010058;28;20079;-51
2023/11/20 03:38:38;;;;;;;16.50;3.58;;;12.30;99.90;;;;;;5009960;28;20108;-53
2023/11/20 03:41:04;;;;;;;8.10;2.45;;;12.30;99.90;;;;;;5008438;28;20129;-50
2023/11/20 03:43:30;;;;;;;10.57;2.55;;;12.40;99.90;;;;;;5008658;28;20026;-49
2023/11/20 03:45:56;;;;;;;9.25;2.58;;;12.40;99.90;;;;;;5009807;28;20032;-50
2023/11/20 03:48:21;;;;;;;15.35;3.38;;;12.40;99.90;;;;;;5009244;28;20095;-50
2023/11/20 03:50:47;;;;;;;9.65;2.75;;;12.30;99.90;;;;;;5009746;28;20072;-48
2023/11/20 03:53:12;;;;;;;11.60;3.90;;;12.40;99.90;;;;;;5009635;28;20541;-54
2023/11/20 03:55:38;;;;;;;15.10;2.40;;;12.30;99.90;;;;;;5009546;28;20026;-50
2023/11/20 03:58:03;;;;;;;14.60;2.35;;;12.30;99.90;;;;;;5009520;28;20065;-52
2023/11/20 04:00:29;;;;;;;17.90;2.20;;;12.30;99.90;;;;;;5009662;28;20053;-51
2023/11/20 04:02:57;;;;;;;11.18;2.42;;;12.30;99.90;;;;;;5009253;28;20018;-53
2023/11/20 04:05:23;;;;;;;10.90;2.63;;;12.30;99.90;;;;;;5009312;28;20030;-51
2023/11/20 04:07:48;;;;;;;15.73;3.03;;;12.30;99.90;;;;;;5008056;28;20030;-51
2023/11/20 04:10:14;;;;;;;16.00;3.60;;;12.30;99.90;;;;;;5009373;28;20485;-52
2023/11/20 04:12:40;;;;;;;11.98;2.58;;;12.30;99.90;;;;;;5009260;28;20034;-50
2023/11/20 04:15:06;;;;;;;10.98;2.55;;;12.30;99.90;;;;;;5008055;28;20030;-51
2023/11/20 04:17:33;;;;;;;11.90;1.90;;;12.30;99.90;;;;;;5009167;28;20018;-52
2023/11/20 04:19:58;;;;;;;9.80;2.55;;;12.30;99.90;;;;;;5008048;28;20490;-48
2023/11/20 04:22:24;;;;;;;13.70;2.60;;;12.30;99.90;;;;;;5009079;28;20041;-52
2023/11/20 04:24:49;;;;;;;14.07;2.92;;;12.30;99.90;;;;;;5007860;28;20062;-52
2023/11/20 04:27:15;;;;;;;13.60;2.70;;;12.20;99.90;;;;;;5009234;28;20034;-50
2023/11/20 04:29:40;;;;;;;6.78;1.70;;;12.20;99.90;;;;;;5008929;28;20029;-48
2023/11/20 04:32:06;;;;;;;7.35;2.03;;;12.20;99.90;;;;;;5008873;28;20392;-52
2023/11/20 04:34:31;;;;;;;15.18;2.75;;;12.10;99.90;;;;;;5009052;28;20038;-50
2023/11/20 04:36:57;;;;;;;14.98;2.08;;;12.10;99.90;;;;;;5008995;28;20071;-48
2023/11/20 04:39:22;;;;;;;15.82;2.80;;;12.10;99.90;;;;;;5007775;28;20033;-50
2023/11/20 04:41:48;;;;;;;18.67;2.85;;;12.20;99.90;;;;;;5008773;28;20438;-52
2023/11/20 04:44:13;;;;;;;9.27;1.95;;;12.20;99.90;;;;;;5008639;28;20090;-51
2023/11/20 04:46:41;;;;;;;10.43;2.40;;;12.10;99.90;;;;;;5008772;28;20033;-53
2023/11/20 04:49:06;;;;;;;9.80;3.03;;;12.10;99.90;;;;;;5008561;28;20026;-51
2023/11/20 04:51:32;;;;;;;13.27;2.78;;;12.10;99.90;;;;;;5007462;28;20037;-48
2023/11/20 04:53:57;;;;;;;18.45;3.67;;;12.10;99.90;;;;;;5009091;28;20026;-48
2023/11/20 04:56:24;;;;;;;10.48;2.83;;;12.10;99.90;;;;;;5007418;28;20465;-49
2023/11/20 04:58:50;;;;;;;10.70;3.33;;;12.10;99.90;;;;;;5009023;28;20049;-50
2023/11/20 05:01:15;;;;;;;13.45;2.30;;;12.00;99.90;;;;;;5009033;28;20439;-50
2023/11/20 05:03:42;;;;;;;7.40;2.47;;;12.00;99.90;;;;;;5009592;28;20029;-49
2023/11/20 05:06:12;;;;;;;11.00;2.47;;;12.10;99.90;;;;;;5009473;28;20033;-49
2023/11/20 05:08:37;;;;;;;15.65;2.70;;;11.90;99.90;;;;;;5008862;28;20382;-49
2023/11/20 05:11:03;;;;;;;10.23;2.08;;;11.90;99.90;;;;;;5007327;28;20030;-51
2023/11/20 05:13:30;;;;;;;10.18;2.40;;;11.90;99.90;;;;;;5007698;28;20022;-48
2023/11/20 05:15:55;;;;;;;6.35;2.30;;;11.90;99.90;;;;;;5008841;28;20022;-48
2023/11/20 05:18:21;;;;;;;12.88;3.00;;;11.90;99.90;;;;;;5010198;28;20025;-49
2023/11/20 05:20:46;;;;;;;11.65;3.22;;;11.90;99.90;;;;;;5012386;28;20033;-53
2023/11/20 05:23:12;;;;;;;13.18;2.60;;;11.90;99.90;;;;;;5012396;28;20026;-48
2023/11/20 05:25:46;;;;;;;6.15;1.55;;;12.00;99.90;;;;;;5012223;28;20113;-45
2023/11/20 05:28:11;;;;;;;8.80;1.65;;;11.90;99.90;;;;;;5012270;28;20054;-49
2023/11/20 05:30:38;;;;;;;10.68;2.63;;;11.90;99.90;;;;;;5012574;28;20065;-48
2023/11/20 05:33:04;;;;;;;9.43;2.22;;;11.80;99.90;;;;;;5012095;28;20022;-50
2023/11/20 05:35:29;;;;;;;8.70;2.55;;;11.90;99.90;;;;;;5012092;28;20071;-51
2023/11/20 05:37:55;;;;;;;6.20;1.60;;;11.90;99.90;;;;;;5012078;28;20477;-49
2023/11/20 05:40:24;;;;;;;9.40;2.03;;;11.70;99.90;;;;;;5011854;28;20507;-48
2023/11/20 05:42:50;;;;;;;10.18;2.80;;;11.80;99.90;;;;;;5011680;28;20079;-50
2023/11/20 05:45:16;;;;;;;8.10;2.25;;;11.90;99.90;;;;;;5010521;28;20033;-51
2023/11/20 05:47:41;;;;;;;7.55;2.00;;;11.90;99.90;;;;;;5011689;28;20026;-53
2023/11/20 05:50:07;;;;;;;9.50;1.73;;;11.80;99.90;;;;;;5009953;28;20396;-50
2023/11/20 05:52:33;;;;;;;16.52;2.40;;;11.90;99.90;;;;;;5011419;28;20018;-50
2023/11/20 05:55:02;;;;;;;7.07;1.67;;;11.80;99.90;;;;;;5011615;28;20026;-48
2023/11/20 05:57:28;;;;;;;13.07;1.65;;;11.80;99.90;;;;;;5010247;28;20539;-48
2023/11/20 05:59:53;;;;;;;10.98;2.33;;;11.70;99.90;;;;;;5011544;28;20365;-48
2023/11/20 06:02:19;;;;;;;6.15;2.03;;;11.70;99.90;;;;;;5011385;28;20032;-51
2023/11/20 06:04:44;;;;;;;7.65;2.05;;;11.70;99.90;;;;;;5011305;28;20102;-49
2023/11/20 06:07:11;;;;;;;7.35;1.85;;;11.70;99.90;;;;;;5011292;28;20115;-51
2023/11/20 06:09:37;;;;;;;6.47;1.38;;;11.70;99.90;;;;;;5011353;28;20075;-48
2023/11/20 06:12:03;;;;;;;5.22;1.30;;;11.60;99.90;;;;;;5011175;28;20022;-49
2023/11/20 06:14:28;;;;;;;7.03;2.08;;;11.60;99.90;;;;;;5011125;28;20030;-47
2023/11/20 06:16:54;;;;;;;5.10;1.48;;;11.60;99.90;;;;;;5011678;28;20022;-50
2023/11/20 06:19:19;;;;;;;10.13;1.75;;;11.40;99.90;;;;;;5009917;28;20030;-48
2023/11/20 06:21:51;;;;;;;5.97;1.80;;;11.50;99.90;;;;;;5011152;28;20481;-47
2023/11/20 06:24:19;;;;;;;5.88;2.40;;;11.50;99.90;;;;;;5011296;28;20022;-49
2023/11/20 06:26:44;;;;;;;7.43;1.60;;;11.50;99.90;;;;;;5011252;28;20242;-51
2023/11/20 06:29:10;;;;;;;3.60;1.20;;;11.40;99.90;;;;;;5009635;28;20037;-50
2023/11/20 06:31:36;;;;;;;10.30;2.05;;;11.50;99.90;;;;;;5010700;28;20037;-52
2023/11/20 06:34:01;;;;;;;8.30;1.85;;;11.50;99.90;;;;;;5011136;28;20029;-52
2023/11/20 06:36:27;;;;;;;8.77;1.77;;;11.50;99.90;;;;;;5011013;28;20033;-52
2023/11/20 06:38:53;;;;;;;2.78;1.17;;;11.50;99.90;;;;;;5011129;28;20116;-50
2023/11/20 06:41:19;;;;;;;5.88;1.42;;;11.50;99.90;;;;;;5010675;28;20030;-50
2023/11/20 06:43:45;;;;;;;3.72;1.10;;;11.40;99.90;;;;;;5011142;28;20026;-52
2023/11/20 06:46:23;;;;;;;10.35;1.85;;;11.40;99.90;;;;;;5010821;28;20491;-48
2023/11/20 06:48:49;;;;;;;11.20;2.75;;;11.40;99.90;;;;;;5010615;28;20033;-52
2023/11/20 06:51:18;;;;;;;10.35;2.25;;;11.40;99.90;;;;;;5010857;28;20030;-49
2023/11/20 06:53:44;;;;;;;8.75;2.03;;;11.40;99.90;;;;;;5009715;28;20446;-54
2023/11/20 06:56:19;;;;;;;10.27;2.00;;;11.30;99.90;;;;;;5010746;28;20034;-52
2023/11/20 06:58:45;;;;;;;;;;;11.30;99.90;;;;;;5011414;28;20056;-53
2023/11/20 07:01:14;;;;;;;8.00;2.20;;;11.30;99.90;;;;;;5010654;28;19910;-52
2023/11/20 07:03:42;;;;;;;11.50;2.10;;;11.30;99.90;;;;;;5010753;28;20044;-51
2023/11/20 07:06:19;;;;;;;7.53;1.65;;;11.30;99.90;;;;;;5010364;28;20025;-49
2023/11/20 07:08:44;;;;;;;9.50;1.60;;;11.30;99.90;;;;;;5010339;28;20032;-53
2023/11/20 07:11:10;;;;;;;6.05;2.13;;;11.20;99.90;;;;;;5009890;28;20037;-52
2023/11/20 07:13:36;;;;;;;5.53;1.98;;;11.20;99.90;;;;;;5010146;28;20087;-51
2023/11/20 07:16:02;;;;;;;8.95;2.08;;;11.30;99.90;;;;;;5010090;28;20029;-48
2023/11/20 07:18:27;;;;;;;5.07;1.75;;;11.20;99.90;;;;;;5010111;28;20022;-50
2023/11/20 07:20:54;;;;;;;5.07;1.70;;;11.20;99.90;;;;;;5010124;28;20030;-50
2023/11/20 07:23:20;;;;;;;6.18;1.80;;;11.30;99.90;;;;;;5010359;28;20533;-50
2023/11/20 07:25:45;;;;;;;4.95;1.48;;;11.40;99.90;;;;;;5009974;28;20038;-50
2023/11/20 07:28:11;;;;;;;11.50;2.17;;;11.40;99.90;;;;;;5008952;28;20496;-49
2023/11/20 07:30:37;;;;;;;8.95;2.13;;;11.40;99.90;;;;;;5010009;28;20412;-53
2023/11/20 07:33:03;;;;;;;2.17;1.58;;;11.40;99.90;;;;;;5009771;28;20029;-48
2023/11/20 07:35:29;;;;;;;5.05;1.10;;;11.40;99.90;;;;;;5010075;28;20083;-49
2023/11/20 07:37:54;;;;;;;2.65;1.30;;;11.40;99.90;;;;;;5010008;28;20134;-50
2023/11/20 07:40:21;;;;;;;3.22;1.48;;;11.50;99.90;;;;;;5008048;28;20021;-49
2023/11/20 07:42:47;;;;;;;3.67;1.13;;;11.40;99.90;;;;;;5009822;28;20049;-51
2023/11/20 07:45:13;;;;;;;7.07;1.83;;;11.40;99.90;;;;;;5009814;28;20029;-48
2023/11/20 07:47:39;;;;;;;1.58;0.98;;;11.40;99.90;;;;;;5009704;28;20075;-48
2023/11/20 07:50:06;;;;;;;7.82;1.65;;;11.40;99.90;;;;;;5009299;28;20060;-49
2023/11/20 07:52:32;;;;;;;3.63;1.48;;;11.40;99.90;;;;;;5009602;28;20105;-49
2023/11/20 07:54:57;;;;;;;4.80;1.42;;;11.50;99.90;;;;;;5009695;28;20048;-51
2023/11/20 07:57:25;;;;;;;4.95;1.33;;;11.50;99.90;;;;;;5009513;28;20513;-53
2023/11/20 07:59:51;;;;;;;5.82;1.40;;;11.50;99.90;;;;;;5009693;28;20389;-48
2023/11/20 08:02:17;;;;;;;6.30;1.05;;;11.50;99.90;;;;;;5009297;28;20489;-49
2023/11/20 08:04:43;;;;;;;6.38;1.65;;;11.50;99.90;;;;;;5009342;28;20037;-49
2023/11/20 08:07:09;;;;;;;7.45;1.67;;;11.50;99.90;;;;;;5009333;28;20026;-48
2023/11/20 08:09:35;;;;;;;4.80;1.92;;;11.60;99.90;;;;;;5009283;28;20496;-49
2023/11/20 08:12:01;;;;;;;2.15;1.40;;;11.50;99.90;;;;;;5009152;28;20022;-50
2023/11/20 08:14:27;;;;;;;6.85;1.17;;;11.60;99.90;;;;;;5009332;28;20025;-48
2023/11/20 08:16:54;;;;;;;8.95;1.85;;;11.60;99.90;;;;;;5009557;28;20056;-50
2023/11/20 08:19:20;;;;;;;7.25;2.33;;;11.60;99.90;;;;;;5009328;28;20557;-49
2023/11/20 08:21:46;;;;;;;4.35;1.48;;;11.60;99.90;;;;;;5009225;28;20401;-52
2023/11/20 08:24:12;;;;;;;4.70;1.20;;;11.60;99.90;;;;;;5009167;28;20030;-49
2023/11/20 08:26:38;;;;;;;3.75;1.30;;;11.60;99.90;;;;;;5009094;28;20022;-52
2023/11/20 08:29:04;;;;;;;4.30;1.60;;;11.60;99.90;;;;;;5009075;28;20041;-49
2023/11/20 08:31:31;;;;;;;4.15;1.13;;;11.50;99.90;;;;;;5009091;28;20381;-49
2023/11/20 08:33:56;;;;;;;4.95;1.10;;;11.50;99.90;;;;;;5009387;28;20022;-48
2023/11/20 08:36:22;;;;;;;4.80;1.40;;;11.50;99.90;;;;;;5009257;28;20097;-48
2023/11/20 08:38:47;;;;;;;7.43;1.33;;;11.60;99.90;;;;;;5009579;28;20034;-53
2023/11/20 08:41:13;;;;;;;7.93;1.20;;;11.60;99.90;;;;;;5009069;28;20038;-46
2023/11/20 08:43:39;;;;;;;4.75;1.67;;;11.70;99.90;;;;;;4995441;28;20482;-47
2023/11/20 08:46:05;;;;;;;4.25;1.27;;;12.10;99.90;;;;;;5008671;28;20105;-45
2023/11/20 08:48:31;;;;;;;8.75;1.75;;;13.00;99.90;;;;;;5008199;28;20464;-52
2023/11/20 08:50:57;;;;;;;0.95;0.90;;;14.00;99.90;;;;;;5008853;28;20457;-48
2023/11/20 08:53:22;;;;;;;7.45;1.98;;;14.80;99.90;;;;;;5008485;28;20105;-47
2023/11/20 08:55:48;;;;;;;4.07;0.90;;;15.20;99.90;;;;;;5064025;23;20172;-48
2023/11/20 08:58:14;;;;;;;4.65;1.15;;;15.70;99.90;;;;;;5107974;28;20016;-52
2023/11/20 09:00:39;;;;;;;5.47;1.10;;;16.20;99.90;;;;;;5107769;28;20028;-51
2023/11/20 09:03:05;;;;;;;3.85;1.10;;;16.70;99.90;;;;;;5111808;28;20031;-47
2023/11/20 09:05:30;;;;;;;4.03;0.98;;;16.50;99.90;;;;;;5093055;28;20025;-52
2023/11/20 09:07:57;;;;;;;3.38;1.20;;;15.70;99.90;;;;;;5075313;28;20569;-47
2023/11/20 09:10:23;;;;;;;6.47;1.38;;;15.00;99.90;;;;;;5070960;28;20107;-46
2023/11/20 09:12:50;;;;;;;2.63;0.70;;;14.40;99.90;;;;;;5058800;28;20167;-49
2023/11/20 09:15:16;;;;;;;3.38;1.30;;;14.00;99.90;;;;;;5071001;28;20103;-49
2023/11/20 09:17:42;;;;;;;4.28;2.08;;;13.70;99.90;;;;;;5084958;28;20052;-51
2023/11/20 09:20:12;;;;;;;5.63;1.48;;;13.30;99.90;;;;;;5070704;28;20025;-51
2023/11/20 09:22:38;;;;;;;1.80;1.05;;;13.10;99.90;;;;;;5070539;28;20029;-50
2023/11/20 09:25:04;;;;;;;7.88;1.95;;;12.90;99.90;;;;;;5070806;28;20426;-49
2023/11/20 09:27:29;;;;;;;8.55;2.38;;;12.90;99.90;;;;;;5086432;28;20020;-51
2023/11/20 09:29:56;;;;;;;8.75;2.30;;;12.80;99.90;;;;;;5086565;28;20467;-49
2023/11/20 09:32:21;;;;;;;7.65;2.28;;;12.80;99.90;;;;;;5070957;28;20017;-53
2023/11/20 09:34:47;;;;;;;13.70;2.67;;;12.80;99.90;;;;;;5071024;28;20100;-50
2023/11/20 09:37:13;;;;;;;6.25;1.95;;;12.80;99.90;;;;;;5070932;28;20480;-48
2023/11/20 09:39:41;;;;;;;4.88;1.10;;;12.80;99.90;;;;;;5070880;28;20031;-50
2023/11/20 09:42:10;;;;;;;7.63;1.35;;;12.80;99.90;;;;;;5072137;28;20066;-50
2023/11/20 09:44:40;;;;;;;6.50;1.77;;;12.80;99.90;;;;;;5079661;28;20024;-51
2023/11/20 09:47:07;;;;;;;4.80;1.50;;;12.70;99.90;;;;;;5087417;28;20025;-54
2023/11/20 09:49:36;;;;;;;5.32;1.58;;;12.70;99.90;;;;;;5052275;28;20060;-53
2023/11/20 09:52:06;;;;;;;8.48;1.70;;;12.70;99.90;;;;;;5052345;28;20484;-59
2023/11/20 09:54:34;;;;;;;4.63;1.20;;;12.60;99.90;;;;;;5052723;28;20021;-55
2023/11/20 09:57:00;;;;;;;4.38;1.77;;;12.60;99.90;;;;;;5074315;28;20020;-54
2023/11/20 09:59:26;;;;;;;17.42;2.25;;;12.60;99.90;;;;;;5080585;28;20387;-53
2023/11/20 10:01:52;;;;;;;3.58;2.05;;;12.60;99.90;;;;;;5090655;28;20024;-53
2023/11/20 10:04:21;;;;;;;2.88;1.48;;;12.60;99.90;;;;;;5075485;28;20112;-53
2023/11/20 10:06:48;;;;;;;8.50;1.42;;;12.60;99.90;;;;;;5073993;28;20026;-54
2023/11/20 10:09:17;;;;;;;7.15;1.45;;;12.60;99.90;;;;;;5083948;28;20025;-48
2023/11/20 10:11:47;;;;;;;4.55;1.35;;;12.70;99.90;;;;;;5074061;28;20099;-52
2023/11/20 10:14:13;;;;;;;4.68;1.20;;;12.70;99.90;;;;;;5074663;28;20391;-51
2023/11/20 10:16:39;;;;;;;5.55;1.40;;;12.80;99.90;;;;;;5085082;28;20100;-54
2023/11/20 10:19:07;;;;;;;5.05;1.25;;;13.30;99.90;;;;;;5074097;28;20025;-55
2023/11/20 10:21:33;;;;;;;5.57;1.25;;;13.60;99.90;;;;;;5073637;28;20025;-52
2023/11/20 10:24:01;;;;;;;2.95;0.90;;;13.70;99.90;;;;;;5077819;28;20102;-61
2023/11/20 10:26:26;;;;;;;2.55;1.13;;;13.80;99.90;;;;;;5080611;28;20051;-47
2023/11/20 10:28:55;;;;;;;4.28;1.48;;;13.80;99.90;;;;;;5075648;28;20052;-47
2023/11/20 10:31:24;;;;;;;2.22;0.80;;;13.80;99.90;;;;;;5073405;28;20020;-51
2023/11/20 10:34:09;;;;;;;1.55;0.85;;;13.70;99.90;;;;;;5074273;28;20017;-48
2023/11/20 10:36:36;;;;;;;4.17;1.30;;;13.50;99.90;;;;;;5078459;28;20503;-47
2023/11/20 10:39:03;;;;;;;1.20;0.70;;;13.50;99.90;;;;;;5093146;28;20028;-52
2023/11/20 10:41:29;;;;;;;2.33;0.80;;;13.50;99.90;;;;;;5095767;28;20103;-52
2023/11/20 10:43:55;;;;;;;1.60;0.60;;;13.50;99.90;;;;;;5077575;28;20048;-53
2023/11/20 10:46:23;;;;;;;1.80;0.70;;;13.70;99.90;;;;;;5075226;28;20420;-51
2023/11/20 10:48:49;;;;;;;4.43;0.80;;;13.70;99.90;;;;;;5076020;28;20032;-49
2023/11/20 10:51:18;;;;;;;1.83;0.90;;;13.70;99.90;;;;;;5077450;28;20484;-47
2023/11/20 10:54:01;;;;;;;3.72;1.58;;;13.60;99.90;;;;;;5077753;28;20028;-47
2023/11/20 10:56:30;;;;;;;4.75;0.80;;;13.60;99.90;;;;;;5076932;28;20037;-51
2023/11/20 10:58:57;;;;;;;2.88;0.88;;;13.60;99.90;;;;;;5076712;28;20472;-47
2023/11/20 11:01:25;;;;;;;1.67;0.60;;;13.60;99.90;;;;;;5091729;28;20028;-50
2023/11/20 11:03:52;;;;;;;1.98;0.60;;;13.60;99.90;;;;;;5079974;28;20032;-53
2023/11/20 11:06:19;;;;;;;2.17;0.57;;;13.50;99.90;;;;;;5078500;28;20066;-51
2023/11/20 11:08:49;;;;;;;1.08;0.73;;;13.40;99.90;;;;;;5075021;28;20032;-48
2023/11/20 11:11:16;;;;;;;4.22;0.70;;;13.30;99.90;;;;;;5080027;28;20050;-51
2023/11/20 11:13:43;;;;;;;2.05;0.60;;;13.40;99.90;;;;;;5090914;28;20069;-54
2023/11/20 11:16:17;;;;;;;3.20;0.52;;;13.60;99.90;;;;;;5087241;28;20184;-47
2023/11/20 11:18:49;;;;;;;0.68;0.60;;;13.60;99.90;;;;;;5075887;28;20021;-51
2023/11/20 11:21:16;;;;;;;29.27;19.20;;;13.60;99.90;;;;;;5088633;28;20036;-46
2023/11/20 11:23:51;;;;;;;10.02;4.97;;;13.60;99.90;;;;;;5072681;28;20077;-51
2023/11/20 11:26:30;;;;;;;11.25;2.22;;;13.40;99.90;;;;;;5074649;28;20445;-51
2023/11/20 11:29:08;;;;;;;5.03;1.10;;;13.20;99.90;;;;;;5054582;28;20077;-51
2023/11/20 11:32:01;;;;;;;1.63;0.63;;;13.20;99.90;;;;;;5096743;28;20080;-48
2023/11/20 11:34:47;;;;;;;4.65;0.95;;;13.20;99.90;;;;;;5092159;28;20076;-51
2023/11/20 11:37:32;;;;;;;1.95;0.70;;;13.20;99.90;;;;;;5068532;28;20025;-46
2023/11/20 11:40:09;;;;;;;4.40;1.00;;;13.30;99.90;;;;;;5067337;28;20036;-52
2023/11/20 11:42:44;;;;;;;2.97;0.73;;;13.90;99.90;;;;;;5066515;28;20028;-54
2023/11/20 11:45:14;;;;;;;2.47;0.90;;;13.50;99.90;;;;;;5069764;28;20044;-53
2023/11/20 11:47:47;;;;;;;2.42;0.85;;;13.60;99.90;;;;;;5088098;28;20055;-53
2023/11/20 11:50:17;;;;;;;1.95;1.00;;;14.10;99.90;;;;;;5073361;28;20005;-60
2023/11/20 11:52:43;;;;;;;1.95;0.80;;;13.20;99.90;;;;;;5075136;28;20020;-56
2023/11/20 11:55:19;;;;;;;48.05;25.88;;;13.10;99.90;;;;;;5073355;28;20052;-55
2023/11/20 11:57:54;;;;;;;19.85;9.45;;;13.10;99.90;;;;;;5090729;28;20089;-55
2023/11/20 12:00:26;;;;;;;5.22;1.40;;;13.00;99.90;;;;;;5090590;28;20029;-59
2023/11/20 12:02:57;;;;;;;4.13;0.95;;;13.00;99.90;;;;;;5074659;28;20040;-57
2023/11/20 12:05:24;;;;;;;0.63;0.40;;;12.90;99.90;;;;;;5074060;28;20020;-53
2023/11/20 12:07:59;;;;;;;2.15;0.68;;;12.80;99.90;;;;;;5090730;28;20032;-55
2023/11/20 12:10:45;;;;;;;3.25;0.70;;;12.70;99.90;;;;;;5074937;28;20076;-54
2023/11/20 12:13:15;;;;;;;1.17;0.70;;;12.50;99.90;;;;;;5075471;28;20021;-58
2023/11/20 12:15:42;;;;;;;6.03;1.02;;;12.70;99.90;;;;;;5075985;28;20017;-54
2023/11/20 12:18:12;;;;;;;2.15;1.20;;;12.80;99.90;;;;;;5076076;28;20016;-61
2023/11/20 12:20:42;;;;;;;4.50;1.20;;;12.50;99.90;;;;;;5075438;28;20008;-52
2023/11/20 12:23:17;;;;;;;1.33;0.77;;;13.00;99.90;;;;;;5074858;28;20005;-57
2023/11/20 12:25:42;;;;;;;1.75;0.50;;;13.10;99.90;;;;;;5090513;28;20029;-52
2023/11/20 12:28:08;;;;;;;3.22;1.02;;;13.50;99.90;;;;;;5090816;28;20037;-56
2023/11/20 12:30:34;;;;;;;3.22;1.35;;;13.10;99.90;;;;;;5075658;28;20021;-58
2023/11/20 12:33:02;;;;;;;2.50;0.77;;;13.20;99.90;;;;;;5074181;28;20040;-54
2023/11/20 12:35:28;;;;;;;4.85;1.00;;;13.10;99.90;;;;;;5091304;28;20025;-60
2023/11/20 12:37:54;;;;;;;0.70;0.55;;;13.00;99.90;;;;;;5074784;28;20037;-56
2023/11/20 12:40:20;;;;;;;3.35;1.10;;;13.00;99.90;;;;;;5074730;28;20017;-54
2023/11/20 12:42:46;;;;;;;2.28;0.90;;;13.00;99.90;;;;;;5074238;28;20056;-53